Time;durP1;ratioP1;P1;durP2;ratioP2;P2;SDS_P1;SDS_P2;PMS_P1;PMS_P2;Temp;Humidity;BMP_temperature;BMP_pressure;BME280_temperature;BME280_humidity;BME280_pressure;Samples;Min_cycle;Max_cycle;Signal;HPM_P1;HPM_P2
2022/10/10 00:00:03;;;;;;;7.50;3.90;;;8.30;99.90;;;;;;4948270;29;20044;-87
2022/10/10 00:02:28;;;;;;;7.85;4.25;;;8.30;99.90;;;;;;4915596;29;20047;-87
2022/10/10 00:04:54;;;;;;;9.30;3.88;;;8.20;99.90;;;;;;4937816;29;20035;-87
2022/10/10 00:07:20;;;;;;;7.45;4.03;;;8.50;99.90;;;;;;4938009;29;20043;-87
2022/10/10 00:09:46;;;;;;;7.85;4.28;;;8.30;99.90;;;;;;4953977;29;20047;-87
2022/10/10 00:12:12;;;;;;;7.05;3.78;;;8.10;99.90;;;;;;4953526;28;20082;-87
2022/10/10 00:14:38;;;;;;;7.47;3.95;;;8.10;99.90;;;;;;4922369;29;20047;-87
2022/10/10 00:17:04;;;;;;;7.30;3.95;;;8.10;99.90;;;;;;4953659;29;20035;-87
2022/10/10 00:19:30;;;;;;;7.95;4.25;;;8.30;99.90;;;;;;4935181;29;20062;-87
2022/10/10 00:21:56;;;;;;;8.63;4.25;;;8.20;99.90;;;;;;4938074;29;20046;-87
2022/10/10 00:24:21;;;;;;;8.13;4.10;;;8.00;99.90;;;;;;4919271;29;20079;-87
2022/10/10 00:26:47;;;;;;;8.40;4.03;;;8.10;99.90;;;;;;4923617;29;20176;-87
2022/10/10 00:29:13;;;;;;;8.75;4.03;;;8.00;99.90;;;;;;4903395;29;20074;-87
2022/10/10 00:31:38;;;;;;;8.10;4.15;;;8.10;99.90;;;;;;4921302;29;20406;-87
2022/10/10 00:34:04;;;;;;;7.53;3.92;;;8.00;99.90;;;;;;4922500;29;20035;-87
2022/10/10 00:36:30;;;;;;;8.82;4.00;;;8.20;99.90;;;;;;4918750;29;20039;-87
2022/10/10 00:38:55;;;;;;;7.85;3.90;;;8.00;99.90;;;;;;4940403;28;20047;-87
2022/10/10 00:41:22;;;;;;;8.68;3.85;;;8.00;99.90;;;;;;4903505;29;20050;-87
2022/10/10 00:44:09;;;;;;;8.32;4.07;;;8.20;99.90;;;;;;4906584;29;20047;-87
2022/10/10 00:46:36;;;;;;;8.50;4.43;;;7.90;99.90;;;;;;4925827;29;20134;-87
2022/10/10 00:49:06;;;;;;;10.10;4.35;;;7.90;99.90;;;;;;4938082;29;20050;-87
2022/10/10 00:51:32;;;;;;;7.57;4.03;;;8.30;99.90;;;;;;4925247;29;20497;-87
2022/10/10 00:54:03;;;;;;;7.28;3.90;;;7.80;99.90;;;;;;4937864;29;20046;-87
2022/10/10 00:56:36;;;;;;;7.88;4.15;;;7.80;99.90;;;;;;4953229;28;20043;-87
2022/10/10 00:59:04;;;;;;;10.15;4.53;;;7.80;99.90;;;;;;4953916;29;20491;-87
2022/10/10 01:01:30;;;;;;;11.73;4.30;;;7.70;99.90;;;;;;4918967;29;20035;-87
2022/10/10 01:03:58;;;;;;;7.30;4.25;;;7.80;99.90;;;;;;4953766;29;20047;-87
2022/10/10 01:06:24;;;;;;;8.93;4.20;;;7.70;99.90;;;;;;4953538;28;20082;-87
2022/10/10 01:08:49;;;;;;;7.28;3.95;;;7.70;99.90;;;;;;4934435;29;20511;-87
2022/10/10 01:11:30;;;;;;;10.73;4.10;;;7.80;99.90;;;;;;4939469;28;20502;-87
2022/10/10 01:14:15;;;;;;;7.38;3.85;;;7.90;99.90;;;;;;4940634;28;20042;-87
2022/10/10 01:16:47;;;;;;;8.10;4.00;;;8.00;99.90;;;;;;4940148;28;20109;-87
2022/10/10 01:19:18;;;;;;;7.43;4.10;;;8.00;99.90;;;;;;4956821;28;20093;-87
2022/10/10 01:22:05;;;;;;;6.50;4.00;;;7.90;99.90;;;;;;4940605;28;20050;-87
2022/10/10 01:25:09;;;;;;;6.35;3.95;;;7.90;99.90;;;;;;4940830;28;20043;-87
2022/10/10 01:28:01;;;;;;;8.20;4.20;;;7.80;99.90;;;;;;4943908;28;20045;-87
2022/10/10 01:30:30;;;;;;;7.70;4.18;;;7.80;99.90;;;;;;4940139;28;20552;-87
2022/10/10 01:33:03;;;;;;;6.93;4.20;;;7.70;99.90;;;;;;4925085;28;20107;-87
2022/10/10 01:35:42;;;;;;;8.15;4.05;;;7.60;99.90;;;;;;4940452;28;20062;-87
2022/10/10 01:38:11;;;;;;;8.85;4.18;;;7.70;99.90;;;;;;4940992;28;20043;-87
2022/10/10 01:40:57;;;;;;;7.75;4.30;;;7.60;99.90;;;;;;4960050;28;20089;-87
2022/10/10 01:43:25;;;;;;;8.50;4.40;;;7.70;99.90;;;;;;4958501;28;20039;-87
2022/10/10 01:45:52;;;;;;;7.68;4.60;;;7.70;99.90;;;;;;4927974;28;20159;-87
2022/10/10 01:48:25;;;;;;;9.68;4.55;;;7.70;99.90;;;;;;4928339;28;20078;-87
2022/10/10 01:51:12;;;;;;;9.18;5.00;;;7.70;99.90;;;;;;4959684;28;20038;-87
2022/10/10 01:54:16;;;;;;;8.40;4.45;;;7.70;99.90;;;;;;4944047;28;20046;-87
2022/10/10 01:56:44;;;;;;;11.30;5.30;;;7.80;99.90;;;;;;4943843;28;20045;-87
2022/10/10 01:59:20;;;;;;;9.02;5.00;;;7.80;99.90;;;;;;4960035;28;20505;-87
2022/10/10 02:02:19;;;;;;;10.05;4.88;;;7.80;99.90;;;;;;4943204;28;20049;-87
2022/10/10 02:04:55;;;;;;;9.20;4.75;;;7.90;99.90;;;;;;4934758;28;20098;-87
2022/10/10 02:07:30;;;;;;;9.57;4.82;;;7.90;99.90;;;;;;4943324;28;20150;-87
2022/10/10 02:09:58;;;;;;;7.97;5.07;;;7.90;99.90;;;;;;4945160;28;20070;-87
2022/10/10 02:12:25;;;;;;;8.57;5.05;;;7.90;99.90;;;;;;4938132;28;20528;-87
2022/10/10 02:14:54;;;;;;;9.27;4.95;;;7.90;99.90;;;;;;4928369;28;20085;-86
2022/10/10 02:17:23;;;;;;;7.72;4.28;;;8.00;99.90;;;;;;4958278;28;20043;-87
2022/10/10 02:19:52;;;;;;;9.45;5.68;;;8.00;99.90;;;;;;4943551;28;20060;-87
2022/10/10 02:22:20;;;;;;;8.63;4.85;;;8.10;99.90;;;;;;4943621;28;20047;-87
2022/10/10 02:24:46;;;;;;;10.32;5.32;;;8.10;99.90;;;;;;4943581;28;20062;-87
2022/10/10 02:27:39;;;;;;;8.70;5.40;;;8.10;99.90;;;;;;4926999;28;20039;-87
2022/10/10 02:30:06;;;;;;;10.50;5.00;;;8.10;99.90;;;;;;4931866;28;20051;-87
2022/10/10 02:32:41;;;;;;;9.68;5.20;;;8.20;99.90;;;;;;4939700;29;20039;-87
2022/10/10 02:35:19;;;;;;;8.55;4.95;;;8.20;99.90;;;;;;4962332;28;20038;-87
2022/10/10 02:37:46;;;;;;;8.30;5.07;;;8.30;99.90;;;;;;4959035;28;20038;-87
2022/10/10 02:40:18;;;;;;;9.10;5.03;;;8.40;99.90;;;;;;4927515;28;20034;-87
2022/10/10 02:42:46;;;;;;;9.38;4.97;;;8.30;99.90;;;;;;4942748;28;20051;-87
2022/10/10 02:45:12;;;;;;;12.50;5.47;;;8.40;99.90;;;;;;4927182;28;20042;-87
2022/10/10 02:47:38;;;;;;;9.55;4.97;;;8.30;99.90;;;;;;4958657;28;20039;-87
2022/10/10 02:50:04;;;;;;;11.90;5.68;;;8.30;99.90;;;;;;4909234;28;20046;-87
2022/10/10 02:52:29;;;;;;;10.38;5.20;;;8.30;99.90;;;;;;4926732;28;20084;-87
2022/10/10 02:54:55;;;;;;;8.95;5.28;;;8.20;99.90;;;;;;4942825;28;20046;-87
2022/10/10 02:57:21;;;;;;;9.13;5.13;;;8.20;99.90;;;;;;4929134;28;20073;-87
2022/10/10 02:59:46;;;;;;;7.95;5.03;;;8.20;99.90;;;;;;4911733;28;20066;-87
2022/10/10 03:02:13;;;;;;;9.00;5.05;;;8.30;99.90;;;;;;4942532;28;20049;-87
2022/10/10 03:04:39;;;;;;;8.60;5.32;;;8.20;99.90;;;;;;4939780;29;20050;-88
2022/10/10 03:07:04;;;;;;;9.55;5.40;;;8.20;99.90;;;;;;4942597;28;20086;-87
2022/10/10 03:09:30;;;;;;;10.70;5.72;;;8.20;99.90;;;;;;4926865;28;20042;-87
2022/10/10 03:11:56;;;;;;;10.70;5.70;;;8.20;99.90;;;;;;4926150;28;20062;-87
2022/10/10 03:14:21;;;;;;;8.60;5.70;;;8.20;99.90;;;;;;4926777;28;20043;-87
2022/10/10 03:16:47;;;;;;;8.77;5.50;;;8.20;99.90;;;;;;4942115;28;20422;-87
2022/10/10 03:19:13;;;;;;;8.50;5.55;;;8.10;99.90;;;;;;4942427;28;20101;-87
2022/10/10 03:21:38;;;;;;;10.32;5.70;;;8.10;99.90;;;;;;4934444;28;20490;-87
2022/10/10 03:24:04;;;;;;;9.90;5.45;;;8.00;99.90;;;;;;4942493;28;20050;-87
2022/10/10 03:26:31;;;;;;;9.30;5.75;;;8.00;99.90;;;;;;4926551;28;20038;-87
2022/10/10 03:28:56;;;;;;;9.38;5.63;;;8.20;99.90;;;;;;4941887;28;20079;-87
2022/10/10 03:31:22;;;;;;;9.82;6.07;;;8.00;99.90;;;;;;4938572;28;20078;-87
2022/10/10 03:33:48;;;;;;;9.73;5.80;;;8.10;99.90;;;;;;4931341;28;20039;-87
2022/10/10 03:36:15;;;;;;;9.10;5.78;;;8.00;99.90;;;;;;4925739;28;20055;-87
2022/10/10 03:38:40;;;;;;;8.95;5.43;;;8.20;99.90;;;;;;4944489;28;20042;-87
2022/10/10 03:41:06;;;;;;;8.35;5.43;;;7.90;99.90;;;;;;4926440;28;20045;-86
2022/10/10 03:43:32;;;;;;;9.80;5.93;;;7.90;99.90;;;;;;4928480;28;20174;-87
2022/10/10 03:45:57;;;;;;;11.07;6.13;;;8.00;99.90;;;;;;4925427;28;20097;-87
2022/10/10 03:48:23;;;;;;;8.25;5.80;;;8.00;99.90;;;;;;4926128;28;20494;-87
2022/10/10 03:50:49;;;;;;;9.63;6.07;;;7.90;99.90;;;;;;4920880;29;20046;-87
2022/10/10 03:53:15;;;;;;;8.68;5.55;;;7.90;99.90;;;;;;4946465;29;20031;-87
2022/10/10 03:55:42;;;;;;;9.00;5.80;;;7.90;99.90;;;;;;4926164;28;20125;-87
2022/10/10 03:58:11;;;;;;;9.15;5.50;;;8.10;99.90;;;;;;4957295;28;20045;-87
2022/10/10 04:00:37;;;;;;;11.60;6.00;;;8.00;99.90;;;;;;4925742;28;20045;-88
2022/10/10 04:03:05;;;;;;;9.52;5.68;;;7.80;99.90;;;;;;4941678;28;20045;-87
2022/10/10 04:05:40;;;;;;;10.13;5.78;;;7.80;99.90;;;;;;4938862;29;20561;-87
2022/10/10 04:08:06;;;;;;;9.35;5.65;;;7.80;99.90;;;;;;4929296;28;20121;-86
2022/10/10 04:10:32;;;;;;;10.68;6.15;;;7.80;99.90;;;;;;4922612;29;20130;-87
2022/10/10 04:12:57;;;;;;;9.00;6.07;;;7.80;99.90;;;;;;4922663;29;20043;-87
2022/10/10 04:15:24;;;;;;;10.43;6.38;;;7.70;99.90;;;;;;4914190;29;20039;-87
2022/10/10 04:17:50;;;;;;;8.70;6.03;;;7.60;99.90;;;;;;4956143;28;20031;-87
2022/10/10 04:20:17;;;;;;;9.73;6.22;;;7.60;99.90;;;;;;4922884;29;20499;-87
2022/10/10 04:22:43;;;;;;;8.80;6.05;;;7.50;99.90;;;;;;4921144;28;20508;-87
2022/10/10 04:25:10;;;;;;;10.55;6.10;;;7.70;99.90;;;;;;4925746;28;20074;-87
2022/10/10 04:27:36;;;;;;;9.50;5.72;;;7.40;99.90;;;;;;4940846;28;20101;-87
2022/10/10 04:30:02;;;;;;;9.70;6.63;;;7.40;99.90;;;;;;4906754;29;20063;-87
2022/10/10 04:32:28;;;;;;;9.05;6.18;;;7.50;99.90;;;;;;4922140;29;20044;-87
2022/10/10 04:34:53;;;;;;;9.52;6.68;;;7.40;99.90;;;;;;4925237;28;20095;-87
2022/10/10 04:37:19;;;;;;;10.23;6.60;;;7.40;99.90;;;;;;4938249;28;20039;-87
2022/10/10 04:39:45;;;;;;;11.38;6.88;;;7.40;99.90;;;;;;4924619;28;20061;-87
2022/10/10 04:42:10;;;;;;;9.88;6.47;;;7.30;99.90;;;;;;4919319;28;20569;-87
2022/10/10 04:44:36;;;;;;;10.70;7.40;;;7.30;99.90;;;;;;4905664;28;20042;-87
2022/10/10 04:47:02;;;;;;;9.30;6.50;;;7.30;99.90;;;;;;4916967;28;20486;-87
2022/10/10 04:49:28;;;;;;;11.75;6.68;;;7.30;99.90;;;;;;4939863;28;20089;-87
2022/10/10 04:51:53;;;;;;;9.65;6.32;;;7.40;99.90;;;;;;4940460;28;20085;-87
2022/10/10 04:54:19;;;;;;;9.77;6.43;;;7.30;99.90;;;;;;4924972;28;20039;-87
2022/10/10 04:56:45;;;;;;;12.02;7.13;;;7.30;99.90;;;;;;4956231;28;20043;-87
2022/10/10 04:59:10;;;;;;;10.82;6.68;;;7.20;99.90;;;;;;4940717;28;20434;-87
2022/10/10 05:01:36;;;;;;;13.57;6.93;;;7.20;99.90;;;;;;4940559;28;20034;-87
2022/10/10 05:04:02;;;;;;;10.48;7.20;;;7.30;99.90;;;;;;4940503;28;20038;-87
2022/10/10 05:06:28;;;;;;;10.90;6.70;;;7.40;99.90;;;;;;4924604;28;20047;-87
2022/10/10 05:08:54;;;;;;;10.15;6.85;;;7.40;99.90;;;;;;4938691;28;20050;-87
2022/10/10 05:11:19;;;;;;;10.07;6.75;;;7.30;99.90;;;;;;4920217;28;20478;-87
2022/10/10 05:13:45;;;;;;;10.88;6.95;;;7.20;99.90;;;;;;4940877;28;20439;-87
2022/10/10 05:16:11;;;;;;;14.32;7.47;;;7.20;99.90;;;;;;4926206;28;20059;-87
2022/10/10 05:18:37;;;;;;;12.10;7.10;;;7.20;99.90;;;;;;4912153;28;20073;-87
2022/10/10 05:21:05;;;;;;;13.20;7.28;;;7.20;99.90;;;;;;4927146;28;20042;-87
2022/10/10 05:23:32;;;;;;;9.73;7.25;;;7.20;99.90;;;;;;4924277;28;20043;-87
2022/10/10 05:25:58;;;;;;;11.13;7.25;;;7.10;99.90;;;;;;4947359;28;20050;-87
2022/10/10 05:28:23;;;;;;;12.18;7.40;;;7.30;99.90;;;;;;4911332;28;20030;-87
2022/10/10 05:30:51;;;;;;;11.77;7.05;;;7.10;99.90;;;;;;4943042;28;20039;-87
2022/10/10 05:33:17;;;;;;;9.75;6.20;;;7.50;99.90;;;;;;4918374;28;20047;-87
2022/10/10 05:35:43;;;;;;;11.40;7.05;;;7.10;99.90;;;;;;4928369;28;20109;-87
2022/10/10 05:38:09;;;;;;;9.95;7.05;;;7.10;99.90;;;;;;4941482;28;20034;-87
2022/10/10 05:40:37;;;;;;;13.77;7.65;;;7.10;99.90;;;;;;4957841;28;20402;-87
2022/10/10 05:43:03;;;;;;;12.70;7.45;;;7.10;99.90;;;;;;4927049;28;20042;-87
2022/10/10 05:45:29;;;;;;;10.38;7.50;;;7.10;99.90;;;;;;4946366;28;20045;-87
2022/10/10 05:47:54;;;;;;;11.45;7.32;;;7.10;99.90;;;;;;4927493;28;20406;-88
2022/10/10 05:50:45;;;;;;;12.60;7.47;;;7.10;99.90;;;;;;4941935;28;20050;-87
2022/10/10 05:53:11;;;;;;;11.20;7.88;;;7.00;99.90;;;;;;4941974;28;20402;-87
2022/10/10 05:55:36;;;;;;;13.20;7.43;;;7.00;99.90;;;;;;4942027;28;20039;-87
2022/10/10 05:58:03;;;;;;;13.25;7.65;;;7.00;99.90;;;;;;4922342;28;20037;-87
2022/10/10 06:00:29;;;;;;;14.30;7.97;;;6.90;99.90;;;;;;4958366;28;20089;-87
2022/10/10 06:02:57;;;;;;;10.82;7.78;;;7.00;99.90;;;;;;4922598;28;20450;-87
2022/10/10 06:05:23;;;;;;;12.15;8.30;;;6.90;99.90;;;;;;4938013;28;20047;-87
2022/10/10 06:07:49;;;;;;;10.88;7.70;;;6.90;99.90;;;;;;4926674;28;20042;-87
2022/10/10 06:10:15;;;;;;;12.20;7.75;;;7.00;99.90;;;;;;4911306;28;20035;-87
2022/10/10 06:12:40;;;;;;;11.75;8.10;;;6.90;99.90;;;;;;4939508;28;20050;-87
2022/10/10 06:15:07;;;;;;;11.65;7.60;;;6.90;99.90;;;;;;4925457;28;20126;-87
2022/10/10 06:17:32;;;;;;;11.95;7.68;;;6.90;99.90;;;;;;4924749;28;20035;-87
2022/10/10 06:19:58;;;;;;;12.32;8.23;;;7.50;99.90;;;;;;4924726;29;20500;-87
2022/10/10 06:22:24;;;;;;;15.23;7.93;;;7.10;99.90;;;;;;4915212;28;20112;-87
2022/10/10 06:24:49;;;;;;;11.32;8.35;;;7.10;99.90;;;;;;4926677;28;20038;-87
2022/10/10 06:27:15;;;;;;;12.73;8.07;;;7.10;99.90;;;;;;4927265;28;20057;-87
2022/10/10 06:29:41;;;;;;;11.32;8.32;;;7.90;99.90;;;;;;4943330;28;20070;-87
2022/10/10 06:32:06;;;;;;;13.15;7.90;;;7.10;99.90;;;;;;4923777;29;20046;-87
2022/10/10 06:34:32;;;;;;;11.27;7.90;;;7.20;99.90;;;;;;4927266;28;20089;-87
2022/10/10 06:36:58;;;;;;;11.65;7.70;;;7.20;99.90;;;;;;4925035;28;20038;-87
2022/10/10 06:39:23;;;;;;;10.30;7.65;;;7.30;99.90;;;;;;4930473;28;20093;-87
2022/10/10 06:41:49;;;;;;;11.52;7.05;;;7.60;99.90;;;;;;4927727;28;20125;-87
2022/10/10 06:44:18;;;;;;;11.82;8.00;;;7.30;99.90;;;;;;4928742;28;20114;-87
2022/10/10 06:46:44;;;;;;;11.80;7.88;;;7.40;99.90;;;;;;4942969;28;20047;-87
2022/10/10 06:49:10;;;;;;;12.68;8.07;;;7.40;99.90;;;;;;4908945;28;20062;-87
2022/10/10 06:51:37;;;;;;;12.55;7.70;;;7.50;99.90;;;;;;4914222;28;20129;-87
2022/10/10 06:54:03;;;;;;;13.73;7.75;;;7.60;99.90;;;;;;4931451;28;20038;-86
2022/10/10 06:56:29;;;;;;;11.15;7.63;;;7.60;99.90;;;;;;4957637;28;20513;-86
2022/10/10 06:58:55;;;;;;;11.80;7.63;;;7.70;99.90;;;;;;4944691;28;20038;-86
2022/10/10 07:01:23;;;;;;;12.82;8.10;;;7.70;99.90;;;;;;4964629;28;20050;-87
2022/10/10 07:03:49;;;;;;;10.82;7.78;;;8.20;99.90;;;;;;4948068;28;20038;-87
2022/10/10 07:06:15;;;;;;;11.70;7.75;;;7.90;99.90;;;;;;4915294;28;20093;-87
2022/10/10 07:08:41;;;;;;;10.93;7.72;;;8.60;99.90;;;;;;4932554;28;20043;-87
2022/10/10 07:11:07;;;;;;;11.85;7.65;;;8.10;99.90;;;;;;4925410;28;20050;-86
2022/10/10 07:13:35;;;;;;;10.88;7.80;;;8.20;99.90;;;;;;4928851;28;20504;-87
2022/10/10 07:16:00;;;;;;;12.57;7.72;;;8.40;99.90;;;;;;4937541;28;20039;-87
2022/10/10 07:18:27;;;;;;;11.23;7.90;;;8.40;99.90;;;;;;4924973;28;20047;-87
2022/10/10 07:21:00;;;;;;;11.57;7.47;;;8.60;99.90;;;;;;4960105;28;20074;-88
2022/10/10 07:23:26;;;;;;;11.63;7.68;;;8.70;99.90;;;;;;4962104;28;20081;-87
2022/10/10 07:26:01;;;;;;;10.43;7.45;;;8.80;99.90;;;;;;4947947;28;20314;-87
2022/10/10 07:28:28;;;;;;;11.20;7.35;;;8.90;99.90;;;;;;4958664;28;20043;-87
2022/10/10 07:31:08;;;;;;;12.07;8.23;;;9.40;99.90;;;;;;4914401;28;20082;-87
2022/10/10 07:33:39;;;;;;;11.10;7.32;;;9.20;99.90;;;;;;4965835;28;20130;-87
2022/10/10 07:36:05;;;;;;;13.82;7.20;;;9.20;99.90;;;;;;4951766;28;20077;-88
2022/10/10 07:38:31;;;;;;;10.63;7.40;;;9.30;99.90;;;;;;4961747;28;20034;-87
2022/10/10 07:40:56;;;;;;;11.65;7.13;;;9.40;99.90;;;;;;4933930;28;20053;-87
2022/10/10 07:43:22;;;;;;;11.25;7.10;;;9.50;99.90;;;;;;4917850;28;20042;-86
2022/10/10 07:45:48;;;;;;;11.25;7.50;;;9.50;99.90;;;;;;4917815;28;20497;-87
2022/10/10 07:48:14;;;;;;;10.13;7.20;;;9.50;99.90;;;;;;4961333;28;20516;-87
2022/10/10 07:50:44;;;;;;;12.77;7.95;;;9.60;99.90;;;;;;4942456;28;20039;-87
2022/10/10 07:53:11;;;;;;;13.02;7.78;;;9.60;99.90;;;;;;4923974;28;20030;-87
2022/10/10 07:55:41;;;;;;;12.90;7.32;;;9.70;99.90;;;;;;4942476;28;20041;-87
2022/10/10 07:58:09;;;;;;;11.82;7.60;;;9.70;99.90;;;;;;4944613;28;20034;-87
2022/10/10 08:00:36;;;;;;;11.95;7.88;;;9.70;99.90;;;;;;4949486;28;20034;-87
2022/10/10 08:03:02;;;;;;;11.18;7.57;;;9.80;99.90;;;;;;4933822;28;20050;-88
2022/10/10 08:05:28;;;;;;;11.57;7.82;;;9.80;99.90;;;;;;4930289;28;20516;-87
2022/10/10 08:07:54;;;;;;;13.18;7.72;;;9.80;99.90;;;;;;4925092;28;20039;-87
2022/10/10 08:10:19;;;;;;;12.13;7.93;;;9.90;99.90;;;;;;4913826;28;20047;-87
2022/10/10 08:12:45;;;;;;;13.90;8.10;;;9.90;99.90;;;;;;4932039;28;20062;-87
2022/10/10 08:15:11;;;;;;;12.90;8.07;;;10.10;99.90;;;;;;4927854;28;20046;-87
2022/10/10 08:17:37;;;;;;;11.38;7.90;;;10.30;99.90;;;;;;4949837;28;20406;-87
2022/10/10 08:20:04;;;;;;;12.07;8.10;;;10.30;99.90;;;;;;4932172;28;20030;-87
2022/10/10 08:22:30;;;;;;;14.00;8.30;;;10.40;99.90;;;;;;4947075;28;20038;-87
2022/10/10 08:24:55;;;;;;;11.77;7.53;;;10.50;99.90;;;;;;4942576;28;20390;-87
2022/10/10 08:27:21;;;;;;;11.43;7.72;;;10.50;99.90;;;;;;4910931;28;20042;-87
2022/10/10 08:29:47;;;;;;;12.52;8.45;;;10.70;99.90;;;;;;4927956;28;20046;-88
2022/10/10 08:32:13;;;;;;;12.90;8.52;;;10.80;99.90;;;;;;4952345;28;20070;-88
2022/10/10 08:34:38;;;;;;;14.00;8.07;;;11.00;99.90;;;;;;4948234;28;20081;-87
2022/10/10 08:37:04;;;;;;;13.65;8.15;;;11.10;99.90;;;;;;4965074;28;20093;-87
2022/10/10 08:39:31;;;;;;;12.80;7.97;;;11.30;99.90;;;;;;4914928;28;20050;-87
2022/10/10 08:41:59;;;;;;;12.82;8.05;;;11.40;99.90;;;;;;4941984;28;20050;-87
2022/10/10 08:44:42;;;;;;;12.13;8.30;;;11.60;99.90;;;;;;4942929;28;20517;-88
2022/10/10 08:47:08;;;;;;;12.32;7.88;;;11.80;99.90;;;;;;4945771;28;20043;-87
2022/10/10 08:49:34;;;;;;;13.23;7.93;;;11.90;99.90;;;;;;4956032;28;20065;-88
2022/10/10 08:52:28;;;;;;;11.68;8.48;;;11.90;99.90;;;;;;4960334;28;20486;-88
2022/10/10 08:54:56;;;;;;;11.18;7.28;;;12.10;99.90;;;;;;4963252;28;20457;-87
2022/10/10 08:57:32;;;;;;;13.52;8.00;;;12.10;99.90;;;;;;4939360;28;20121;-88
2022/10/10 09:00:06;;;;;;;12.77;8.55;;;12.00;99.90;;;;;;4942329;28;20638;-87
2022/10/10 09:02:37;;;;;;;12.48;8.20;;;12.10;99.90;;;;;;4941943;28;20075;-88
2022/10/10 09:05:05;;;;;;;12.27;7.55;;;12.00;99.90;;;;;;4956368;28;20501;-88
2022/10/10 09:07:57;;;;;;;12.68;7.78;;;12.00;99.90;;;;;;4929986;28;20061;-88
2022/10/10 09:10:41;;;;;;;12.15;7.60;;;12.10;99.90;;;;;;4954065;28;20400;-88
2022/10/10 09:13:16;;;;;;;12.50;7.78;;;12.10;99.90;;;;;;4959761;28;20062;-88
2022/10/10 09:15:50;;;;;;;12.40;8.30;;;12.10;99.90;;;;;;4952614;28;20711;-88
2022/10/10 09:18:47;;;;;;;11.95;8.60;;;12.20;99.90;;;;;;4943011;28;20047;-88
2022/10/10 09:21:24;;;;;;;14.90;8.40;;;12.30;99.90;;;;;;4958183;28;20053;-88
2022/10/10 09:23:49;;;;;;;13.95;7.97;;;12.50;99.90;;;;;;4975786;28;20117;-87
2022/10/10 09:26:21;;;;;;;12.25;7.97;;;12.70;99.90;;;;;;4947000;28;20146;-87
2022/10/10 09:29:13;;;;;;;12.70;7.50;;;12.80;99.90;;;;;;4943686;28;20538;-88
2022/10/10 09:31:43;;;;;;;13.70;8.80;;;12.80;99.90;;;;;;4943213;28;20130;-88
2022/10/10 09:34:12;;;;;;;13.10;8.23;;;12.80;99.90;;;;;;4960546;28;20493;-88
2022/10/10 09:36:38;;;;;;;12.80;8.23;;;12.80;99.90;;;;;;4961989;28;20038;-87
2022/10/10 09:39:22;;;;;;;12.18;7.90;;;12.90;99.90;;;;;;4962248;28;20038;-88
2022/10/10 09:41:56;;;;;;;12.88;8.30;;;13.10;99.90;;;;;;4960932;28;20375;-88
2022/10/10 09:44:22;;;;;;;13.10;7.75;;;13.50;99.90;;;;;;4961371;28;20506;-88
2022/10/10 09:46:48;;;;;;;11.95;7.90;;;13.80;99.90;;;;;;4928743;28;20070;-88
2022/10/10 09:49:16;;;;;;;14.18;8.10;;;14.00;99.90;;;;;;4928870;28;20038;-88
2022/10/10 09:51:42;;;;;;;11.15;7.32;;;14.20;99.90;;;;;;4943220;28;20478;-88
2022/10/10 09:54:09;;;;;;;15.20;7.88;;;14.20;99.90;;;;;;4925317;28;20035;-88
2022/10/10 09:56:48;;;;;;;13.75;7.80;;;14.20;99.90;;;;;;4958586;28;20035;-88
2022/10/10 09:59:40;;;;;;;12.10;7.82;;;14.30;99.90;;;;;;4961022;28;20045;-88
2022/10/10 10:02:20;;;;;;;15.05;8.40;;;14.40;99.90;;;;;;4943752;28;20150;-88
2022/10/10 10:04:48;;;;;;;10.93;7.65;;;14.60;99.90;;;;;;4946725;28;20054;-88
2022/10/10 10:07:24;;;;;;;11.73;7.82;;;14.80;99.90;;;;;;4948834;28;20042;-88
2022/10/10 10:10:29;;;;;;;11.93;7.50;;;15.00;99.90;;;;;;4949991;28;20105;-88
2022/10/10 10:12:56;;;;;;;11.77;7.80;;;15.10;99.90;;;;;;4941860;28;20047;-87
2022/10/10 10:15:31;;;;;;;11.80;7.22;;;15.10;99.90;;;;;;4961879;28;20047;-88
2022/10/10 10:18:20;;;;;;;13.48;7.97;;;15.00;99.90;;;;;;4959596;28;20039;-88
2022/10/10 10:21:13;;;;;;;12.55;7.80;;;15.00;99.90;;;;;;4953144;28;20049;-88
2022/10/10 10:23:52;;;;;;;10.43;7.45;;;15.10;99.90;;;;;;4957678;28;20097;-89
2022/10/10 10:26:22;;;;;;;13.35;8.00;;;15.20;99.90;;;;;;4963614;28;20460;-88
2022/10/10 10:28:49;;;;;;;13.90;7.70;;;15.20;99.90;;;;;;4946534;28;20042;-88
2022/10/10 10:31:25;;;;;;;13.32;7.70;;;15.30;99.90;;;;;;4958771;28;20082;-88
2022/10/10 10:34:03;;;;;;;11.48;7.63;;;15.40;99.90;;;;;;4966052;28;20046;-88
2022/10/10 10:36:31;;;;;;;10.98;7.60;;;15.60;99.90;;;;;;4958464;28;20043;-88
2022/10/10 10:38:57;;;;;;;10.70;7.35;;;15.70;99.90;;;;;;4943148;28;20038;-88
2022/10/10 10:42:00;;;;;;;13.38;7.88;;;15.70;99.90;;;;;;4965948;28;20053;-89
2022/10/10 10:44:34;;;;;;;13.43;7.30;;;15.50;99.90;;;;;;4977300;28;20054;-88
2022/10/10 10:47:19;;;;;;;12.93;8.32;;;15.50;99.90;;;;;;4966156;28;20050;-88
2022/10/10 10:50:16;;;;;;;11.70;7.72;;;15.40;99.90;;;;;;4944678;28;20097;-89
2022/10/10 10:52:58;;;;;;;11.50;7.85;;;15.40;99.90;;;;;;4946728;28;20404;-89
2022/10/10 10:55:46;;;;;;;12.68;7.55;;;15.40;99.90;;;;;;4961380;28;20043;-88
2022/10/10 10:58:30;;;;;;;11.57;7.55;;;15.50;99.90;;;;;;4959452;28;20117;-88
2022/10/10 11:01:19;;;;;;;13.10;7.68;;;15.50;99.90;;;;;;4964978;28;20039;-88
2022/10/10 11:04:22;;;;;;;11.95;7.47;;;15.70;99.90;;;;;;4944156;28;20049;-89
2022/10/10 11:07:08;;;;;;;;;;;15.80;99.90;;;;;;4945222;28;20039;-88
2022/10/10 11:09:47;;;;;;;11.13;7.53;;;15.80;99.90;;;;;;4961215;28;20328;-88
2022/10/10 11:12:31;;;;;;;10.50;7.60;;;15.80;99.90;;;;;;4960426;28;20085;-88
2022/10/10 11:15:08;;;;;;;12.48;7.55;;;15.80;99.90;;;;;;4960084;28;20510;-88
2022/10/10 11:17:40;;;;;;;10.85;7.38;;;15.90;99.90;;;;;;4941169;28;20039;-88
2022/10/10 11:20:19;;;;;;;13.95;7.95;;;15.80;99.90;;;;;;4942096;28;20483;-88
2022/10/10 11:22:50;;;;;;;12.30;8.32;;;15.80;99.90;;;;;;4944419;28;20046;-88
2022/10/10 11:25:25;;;;;;;11.93;8.15;;;15.70;99.90;;;;;;4960767;28;20042;-89
2022/10/10 11:27:58;;;;;;;11.77;8.00;;;15.70;99.90;;;;;;4945223;28;20035;-89
2022/10/10 11:30:28;;;;;;;12.65;8.00;;;15.80;99.90;;;;;;4960143;28;20161;-88
2022/10/10 11:33:15;;;;;;;11.45;8.13;;;15.70;99.90;;;;;;4961539;28;20038;-88
2022/10/10 11:35:49;;;;;;;12.05;7.70;;;15.80;99.90;;;;;;4959257;28;20070;-88
2022/10/10 11:38:23;;;;;;;10.45;7.68;;;15.90;99.90;;;;;;4959550;28;20043;-88
2022/10/10 11:40:55;;;;;;;11.88;7.65;;;15.90;99.90;;;;;;4944561;28;20053;-89
2022/10/10 11:43:32;;;;;;;11.20;7.40;;;15.90;99.90;;;;;;4960617;28;20065;-88
2022/10/10 11:46:28;;;;;;;13.63;7.60;;;15.90;99.90;;;;;;4939813;28;20446;-89
2022/10/10 11:49:06;;;;;;;12.50;7.78;;;15.90;99.90;;;;;;4961337;28;20038;-89
2022/10/10 11:51:44;;;;;;;13.65;7.60;;;15.80;99.90;;;;;;4943464;28;20042;-88
2022/10/10 11:54:35;;;;;;;11.27;6.88;;;15.70;99.90;;;;;;4957366;28;20100;-89
2022/10/10 11:57:08;;;;;;;11.52;7.07;;;15.70;99.90;;;;;;4966842;28;20042;-89
2022/10/10 11:59:48;;;;;;;10.77;7.00;;;15.70;99.90;;;;;;4961618;28;20034;-88
2022/10/10 12:02:24;;;;;;;11.05;6.85;;;15.60;99.90;;;;;;4960562;28;20448;-89
2022/10/10 12:04:51;;;;;;;12.15;6.88;;;15.50;99.90;;;;;;4953058;28;20527;-89
2022/10/10 12:07:44;;;;;;;9.52;6.65;;;15.50;99.90;;;;;;4942933;28;20404;-89
2022/10/10 12:10:43;;;;;;;12.15;6.50;;;15.40;99.90;;;;;;4957620;28;20428;-89
2022/10/10 12:13:34;;;;;;;12.07;6.63;;;15.30;99.90;;;;;;4934679;28;20051;-89
2022/10/10 12:16:28;;;;;;;10.82;7.05;;;15.30;99.90;;;;;;4957809;28;20501;-89
2022/10/10 12:18:59;;;;;;;12.55;6.70;;;15.20;99.90;;;;;;4941751;28;20042;-89
2022/10/10 12:21:27;;;;;;;12.05;7.18;;;15.10;99.90;;;;;;4941371;28;20393;-89
2022/10/10 12:24:12;;;;;;;11.75;7.22;;;15.10;99.90;;;;;;4940344;28;20375;-89
2022/10/10 12:26:53;;;;;;;10.38;6.47;;;15.00;99.90;;;;;;4939585;28;20093;-89
2022/10/10 12:30:08;;;;;;;10.50;6.00;;;15.10;99.90;;;;;;4943662;28;20042;-89
2022/10/10 12:32:46;;;;;;;10.77;6.63;;;15.00;99.90;;;;;;4920712;28;20055;-89
2022/10/10 12:35:36;;;;;;;11.93;6.65;;;15.00;99.90;;;;;;4941534;28;20042;-89
2022/10/10 12:38:05;;;;;;;10.80;6.32;;;15.00;99.90;;;;;;4946445;28;20137;-88
2022/10/10 12:40:32;;;;;;;11.75;6.45;;;15.00;99.90;;;;;;4960414;28;20054;-89
2022/10/10 12:43:20;;;;;;;13.27;6.88;;;15.00;99.90;;;;;;4942637;28;20093;-88
2022/10/10 12:46:25;;;;;;;10.35;6.60;;;15.10;99.90;;;;;;4959550;28;20131;-89
2022/10/10 12:49:15;;;;;;;11.15;6.05;;;15.10;99.90;;;;;;4916022;28;20046;-89
2022/10/10 12:51:41;;;;;;;10.20;6.32;;;15.20;99.90;;;;;;4952377;28;20054;-89
2022/10/10 12:54:17;;;;;;;11.10;6.68;;;15.20;99.90;;;;;;4942501;28;20043;-89
2022/10/10 12:56:45;;;;;;;11.60;6.55;;;15.20;99.90;;;;;;4956458;28;20043;-89
2022/10/10 12:59:38;;;;;;;13.35;7.40;;;15.20;99.90;;;;;;4938131;28;20031;-89
2022/10/10 13:02:23;;;;;;;;;;;15.20;99.90;;;;;;4957849;28;20691;-89
2022/10/10 13:04:53;;;;;;;13.18;6.82;;;15.20;99.90;;;;;;4938078;28;19918;-89
2022/10/10 13:07:20;;;;;;;11.75;6.50;;;15.10;99.90;;;;;;4938757;28;20039;-89
2022/10/10 13:09:49;;;;;;;11.63;7.05;;;15.20;99.90;;;;;;4938443;28;20039;-89